SCEL/SCL METAR and TAF weather

Enter ICAO airport designator
Station Type Date Time Source
SCEL METAR 2023/02/06 00:00 UTC NOAA

SCEL 060000Z 18009KT 140V210 CAVOK 23/13 Q1013 NOSIG


Station Type Date Time Source
SCEL Decoded METAR 2023/02/06 00:00 UTC NOAA

Pudahuel, Chile (SCEL) 33-23S 070-47W 476M
Feb 05, 2023 - 07:00 PM EST / 2023.02.06 0000 UTC
Wind: from the S (180 degrees) at 10 MPH (9 KT) (direction variable):0
Visibility: greater than 7 mile(s):0
Temperature: 73 F (23 C)
Dew Point: 55 F (13 C)
Relative Humidity: 53%
Pressure (altimeter): 29.91 in. Hg (1013 hPa)
ob: SCEL 060000Z 18009KT 140V210 CAVOK 23/13 Q1013 NOSIG
cycle: 0

Station Type Date Time Source
SCEL TAF 2023/02/06 00:00 UTC NOAA

TAF SCEL 052214Z 0600/0624 21015KT CAVOK TX32/0619Z TN16/0610Z
BECMG 0601/0603 15005KT
BECMG 0615/0617 21016KT

Example: see airport list